createdAt,value
2018-02-12T00:00:01.882Z,6.00
2018-02-12T00:02:29.953Z,6.90
2018-02-12T00:04:58.329Z,7.90
2018-02-12T00:07:26.704Z,8.25
2018-02-12T00:09:55.028Z,7.50
2018-02-12T00:12:23.352Z,9.82
2018-02-12T00:14:51.669Z,13.77
2018-02-12T00:17:19.980Z,12.93
2018-02-12T00:19:48.321Z,13.18
2018-02-12T00:22:16.665Z,7.90
2018-02-12T00:24:44.993Z,7.87
2018-02-12T00:27:13.313Z,10.20
2018-02-12T00:29:41.651Z,11.45
2018-02-12T00:32:09.957Z,11.77
2018-02-12T00:34:38.268Z,16.02
2018-02-12T00:37:06.596Z,17.73
2018-02-12T00:39:34.910Z,15.07
2018-02-12T00:42:03.237Z,17.75
2018-02-12T00:44:31.644Z,15.57
2018-02-12T00:47:00.026Z,15.50
2018-02-12T00:49:28.345Z,17.45
2018-02-12T00:51:56.781Z,19.95
2018-02-12T00:54:25.161Z,16.87
2018-02-12T00:56:53.497Z,16.60
2018-02-12T00:59:21.909Z,20.50
2018-02-12T01:01:50.289Z,14.75
2018-02-12T01:04:18.597Z,11.50
2018-02-12T01:06:46.953Z,12.90
2018-02-12T01:09:15.322Z,10.55
2018-02-12T01:11:43.693Z,9.90
2018-02-12T01:14:12.029Z,11.38
2018-02-12T01:16:40.332Z,12.85
2018-02-12T01:19:08.671Z,12.95
2018-02-12T01:21:36.996Z,12.43
2018-02-12T01:24:05.377Z,14.27
2018-02-12T01:26:33.685Z,8.00
2018-02-12T01:29:02.022Z,11.43
2018-02-12T01:31:30.404Z,11.90
2018-02-12T01:33:58.737Z,10.38
2018-02-12T01:36:27.053Z,15.27
2018-02-12T01:38:55.646Z,18.83
2018-02-12T01:41:23.953Z,8.73
2018-02-12T01:43:52.301Z,9.73
2018-02-12T01:46:20.673Z,11.35
2018-02-12T01:48:49.054Z,11.48
2018-02-12T01:51:17.369Z,14.98
2018-02-12T01:53:45.805Z,12.88
2018-02-12T01:56:14.125Z,16.10
2018-02-12T01:58:42.436Z,18.27
2018-02-12T02:01:10.769Z,19.37
2018-02-12T02:03:39.086Z,15.85
2018-02-12T02:06:07.434Z,20.12
2018-02-12T02:08:35.763Z,28.75
2018-02-12T02:11:04.092Z,15.43
2018-02-12T02:13:32.508Z,18.50
2018-02-12T02:16:00.853Z,16.40
2018-02-12T02:18:29.212Z,18.37
2018-02-12T02:20:57.556Z,27.58
2018-02-12T02:23:25.874Z,19.67
2018-02-12T02:25:54.204Z,21.23
2018-02-12T02:28:22.577Z,19.50
2018-02-12T02:30:50.918Z,26.30
2018-02-12T02:33:19.333Z,26.67
2018-02-12T02:35:49.498Z,25.58
2018-02-12T02:38:17.825Z,30.88
2018-02-12T02:40:46.206Z,18.77
2018-02-12T02:43:14.577Z,19.83
2018-02-12T02:45:42.949Z,24.63
2018-02-12T02:48:11.289Z,24.35
2018-02-12T02:50:39.609Z,22.33
2018-02-12T02:53:07.954Z,17.55
2018-02-12T02:55:36.268Z,16.67
2018-02-12T02:58:04.601Z,18.37
2018-02-12T03:00:32.959Z,20.45
2018-02-12T03:03:01.393Z,21.45
2018-02-12T03:05:29.708Z,22.00
2018-02-12T03:07:58.049Z,20.00
2018-02-12T03:10:26.416Z,22.98
2018-02-12T03:12:54.810Z,18.95
2018-02-12T03:15:23.128Z,20.80
2018-02-12T03:17:51.457Z,25.98
2018-02-12T03:20:19.777Z,23.80
2018-02-12T03:22:48.213Z,20.95
2018-02-12T03:25:16.585Z,21.23
2018-02-12T03:27:44.961Z,23.73
2018-02-12T03:30:13.285Z,23.92
2018-02-12T03:32:41.717Z,25.90
2018-02-12T03:35:10.105Z,25.70
2018-02-12T03:37:38.473Z,23.87
2018-02-12T03:40:06.792Z,25.80
2018-02-12T03:42:35.242Z,28.42
2018-02-12T03:45:03.561Z,23.42
2018-02-12T03:47:31.980Z,26.85
2018-02-12T03:50:00.356Z,25.92
2018-02-12T03:52:28.695Z,25.67
2018-02-12T03:54:57.113Z,32.15
2018-02-12T03:57:25.489Z,26.12
2018-02-12T03:59:53.861Z,28.15
2018-02-12T04:02:22.245Z,24.37
2018-02-12T04:04:50.624Z,23.62
2018-02-12T04:07:18.961Z,26.48
2018-02-12T04:09:47.373Z,27.42
2018-02-12T04:12:15.754Z,27.08
2018-02-12T04:14:44.065Z,24.85
2018-02-12T04:17:12.504Z,26.15
2018-02-12T04:19:40.881Z,24.08
2018-02-12T04:22:09.221Z,26.55
2018-02-12T04:24:37.565Z,26.83
2018-02-12T04:27:05.905Z,26.25
2018-02-12T04:29:34.225Z,29.08
2018-02-12T04:32:02.666Z,25.00
2018-02-12T04:34:30.985Z,27.70
2018-02-12T04:36:59.416Z,24.10
2018-02-12T04:39:27.737Z,23.42
2018-02-12T04:41:56.178Z,29.33
2018-02-12T04:44:24.502Z,23.48
2018-02-12T04:46:52.809Z,26.85
2018-02-12T04:49:21.204Z,27.87
2018-02-12T04:51:49.524Z,25.08
2018-02-12T04:54:17.861Z,22.10
2018-02-12T04:56:46.181Z,28.23
2018-02-12T04:59:14.521Z,23.75
2018-02-12T05:01:42.842Z,25.60
2018-02-12T05:04:11.182Z,34.70
2018-02-12T05:06:39.506Z,23.83
2018-02-12T05:09:07.841Z,23.48
2018-02-12T05:11:36.158Z,24.02
2018-02-12T05:14:04.499Z,34.03
2018-02-12T05:16:32.818Z,27.17
2018-02-12T05:19:01.153Z,25.00
2018-02-12T05:21:29.469Z,23.50
2018-02-12T05:23:58.681Z,27.08
2018-02-12T05:26:26.998Z,25.55
2018-02-12T05:28:55.340Z,27.50
2018-02-12T05:31:23.657Z,26.35
2018-02-12T05:33:51.998Z,22.30
2018-02-12T05:36:20.318Z,23.65
2018-02-12T05:38:48.657Z,25.88
2018-02-12T05:41:16.979Z,25.33
2018-02-12T05:43:45.324Z,24.17
2018-02-12T05:46:14.561Z,33.73
2018-02-12T05:48:42.908Z,34.50
2018-02-12T05:51:11.222Z,26.50
2018-02-12T05:53:39.686Z,31.02
2018-02-12T05:56:08.023Z,27.07
2018-02-12T05:58:36.853Z,33.22
2018-02-12T06:01:05.170Z,35.40
2018-02-12T06:03:33.513Z,24.95
2018-02-12T06:06:01.837Z,25.10
2018-02-12T06:08:30.181Z,26.80
2018-02-12T06:10:58.521Z,21.30
2018-02-12T06:13:27.181Z,34.60
2018-02-12T06:15:56.428Z,31.50
2018-02-12T06:18:24.782Z,32.47
2018-02-12T06:20:53.109Z,30.00
2018-02-12T06:23:21.453Z,29.13
2018-02-12T06:25:49.781Z,23.75
2018-02-12T06:28:18.129Z,23.50
2018-02-12T06:30:46.453Z,21.62
2018-02-12T06:33:14.806Z,20.00
2018-02-12T06:35:43.134Z,20.87
2018-02-12T06:38:11.477Z,24.73
2018-02-12T06:40:39.806Z,23.40
2018-02-12T06:43:08.153Z,25.63
2018-02-12T06:45:36.490Z,26.65
2018-02-12T06:48:04.853Z,24.80
2018-02-12T06:50:33.206Z,29.53
2018-02-12T06:53:01.845Z,21.90
2018-02-12T06:55:30.193Z,23.20
2018-02-12T06:57:58.526Z,30.40
2018-02-12T07:00:26.881Z,26.98
2018-02-12T07:02:55.209Z,27.80
2018-02-12T07:05:23.558Z,27.90
2018-02-12T07:07:51.889Z,34.17
2018-02-12T07:10:20.237Z,29.50
2018-02-12T07:12:49.482Z,39.33
2018-02-12T07:15:17.833Z,31.03
2018-02-12T07:17:46.165Z,28.60
2018-02-12T07:20:14.517Z,22.73
2018-02-12T07:22:42.849Z,29.90
2018-02-12T07:25:11.364Z,29.17
2018-02-12T07:27:39.759Z,27.58
2018-02-12T07:30:08.089Z,24.70
2018-02-12T07:32:37.213Z,36.00
2018-02-12T07:35:05.565Z,27.77
2018-02-12T07:37:33.894Z,29.90
2018-02-12T07:40:02.257Z,33.80
2018-02-12T07:42:30.662Z,29.73
2018-02-12T07:44:59.004Z,28.05
2018-02-12T07:47:27.330Z,28.60
2018-02-12T07:49:55.688Z,29.87
2018-02-12T07:52:24.010Z,27.40
2018-02-12T07:54:52.385Z,39.67
2018-02-12T07:57:20.903Z,29.27
2018-02-12T07:59:49.229Z,29.37
2018-02-12T08:02:17.562Z,29.63
2018-02-12T08:04:45.909Z,24.30
2018-02-12T08:07:14.237Z,35.20
2018-02-12T08:09:42.589Z,33.30
2018-02-12T08:12:11.382Z,33.07
2018-02-12T08:14:39.721Z,31.83
2018-02-12T08:17:08.054Z,35.27
2018-02-12T08:19:36.400Z,24.42
2018-02-12T08:22:04.733Z,24.27
2018-02-12T08:24:33.541Z,31.77
2018-02-12T08:27:02.553Z,27.70
2018-02-12T08:29:30.884Z,26.20
2018-02-12T08:31:59.214Z,26.13
2018-02-12T08:34:27.563Z,28.20
2018-02-12T08:36:55.885Z,29.83
2018-02-12T08:39:24.239Z,20.50
2018-02-12T08:41:52.561Z,22.90
2018-02-12T08:44:20.909Z,26.50
2018-02-12T08:46:49.233Z,20.67
2018-02-12T08:49:17.579Z,18.80
2018-02-12T08:51:45.901Z,25.47
2018-02-12T08:54:14.227Z,19.87
2018-02-12T08:56:42.573Z,13.40
2018-02-12T08:59:10.897Z,18.13
2018-02-12T09:01:39.293Z,23.73
2018-02-12T09:04:10.346Z,17.07
2018-02-12T09:06:38.814Z,18.73
2018-02-12T09:09:07.233Z,25.80
2018-02-12T09:11:35.576Z,17.73
2018-02-12T09:14:03.901Z,10.75
2018-02-12T09:16:32.250Z,14.57
2018-02-12T09:19:00.569Z,12.45
2018-02-12T09:21:28.909Z,25.47
2018-02-12T09:23:57.229Z,15.90
2018-02-12T09:26:25.573Z,14.18
2018-02-12T09:28:53.900Z,15.10
2018-02-12T09:31:22.237Z,20.00
2018-02-12T09:33:50.556Z,31.20
2018-02-12T09:36:19.805Z,18.50
2018-02-12T09:38:48.125Z,21.98
2018-02-12T09:41:16.486Z,27.30
2018-02-12T09:43:44.818Z,25.67
2018-02-12T09:46:13.161Z,16.13
2018-02-12T09:48:41.480Z,19.70
2018-02-12T09:51:10.869Z,18.12
2018-02-12T09:53:40.022Z,21.37
2018-02-12T09:56:08.421Z,16.90
2018-02-12T09:58:36.740Z,16.40
2018-02-12T10:01:05.090Z,21.20
2018-02-12T10:03:33.413Z,15.03
2018-02-12T10:06:01.758Z,17.00
2018-02-12T10:08:30.077Z,13.77
2018-02-12T10:10:58.907Z,14.82
2018-02-12T10:13:27.233Z,18.10
2018-02-12T10:15:55.573Z,15.23
2018-02-12T10:18:23.893Z,14.43
2018-02-12T10:20:52.953Z,15.95
2018-02-12T10:23:21.273Z,12.77
2018-02-12T10:25:49.622Z,9.60
2018-02-12T10:28:17.937Z,7.57
2018-02-12T10:30:46.278Z,15.32
2018-02-12T10:33:14.600Z,15.23
2018-02-12T10:35:43.042Z,6.80
2018-02-12T10:38:11.358Z,6.12
2018-02-12T10:40:39.741Z,8.93
2018-02-12T10:43:08.057Z,12.67
2018-02-12T10:45:36.393Z,6.03
2018-02-12T10:48:04.791Z,9.37
2018-02-12T10:50:33.201Z,2.23
2018-02-12T10:53:01.516Z,2.00
2018-02-12T10:55:30.021Z,3.03
2018-02-12T10:57:58.321Z,6.17
2018-02-12T11:00:26.836Z,3.33
2018-02-12T11:02:55.173Z,5.30
2018-02-12T11:05:24.121Z,4.63
2018-02-12T11:07:52.438Z,3.40
2018-02-12T11:10:20.808Z,14.23
2018-02-12T11:12:51.702Z,8.50
2018-02-12T11:15:21.828Z,7.70
2018-02-12T11:17:50.444Z,3.33
2018-02-12T11:20:18.833Z,10.77
2018-02-12T11:22:52.902Z,7.37
2018-02-12T11:25:22.453Z,13.93
2018-02-12T11:27:50.794Z,6.37
2018-02-12T11:30:19.131Z,7.57
2018-02-12T11:32:47.753Z,9.70
2018-02-12T11:35:16.684Z,8.48
2018-02-12T11:37:45.137Z,27.03
2018-02-12T11:40:13.530Z,19.13
2018-02-12T11:42:41.917Z,14.85
2018-02-12T11:45:20.553Z,13.37
2018-02-12T11:47:49.110Z,14.87
2018-02-12T11:50:17.483Z,18.50
2018-02-12T11:52:45.961Z,12.30
2018-02-12T11:55:14.342Z,21.50
2018-02-12T11:57:42.838Z,14.27
2018-02-12T12:00:11.146Z,16.30
2018-02-12T12:02:39.631Z,11.00
2018-02-12T12:05:08.007Z,19.57
2018-02-12T12:07:36.590Z,15.80
2018-02-12T12:10:05.022Z,12.23
2018-02-12T12:12:33.877Z,12.73
2018-02-12T12:15:02.231Z,11.30
2018-02-12T12:17:30.753Z,27.17
2018-02-12T12:19:59.237Z,25.53
2018-02-12T12:22:27.565Z,9.40
2018-02-12T12:24:55.885Z,8.52
2018-02-12T12:27:24.353Z,14.27
2018-02-12T12:29:52.769Z,12.80
2018-02-12T12:32:21.345Z,19.27
2018-02-12T12:34:49.686Z,17.90
2018-02-12T12:37:18.137Z,21.85
2018-02-12T12:39:46.562Z,14.70
2018-02-12T12:42:14.897Z,9.63
2018-02-12T12:44:43.453Z,5.93
2018-02-12T12:47:11.909Z,17.60
2018-02-12T12:49:40.235Z,14.60
2018-02-12T12:52:08.596Z,20.30
2018-02-12T12:54:36.910Z,17.23
2018-02-12T12:57:05.309Z,12.80
2018-02-12T12:59:33.738Z,10.67
2018-02-12T13:02:02.166Z,29.13
2018-02-12T13:04:31.153Z,14.27
2018-02-12T13:06:59.525Z,8.60
2018-02-12T13:09:27.909Z,11.83
2018-02-12T13:11:56.287Z,37.67
2018-02-12T13:14:24.610Z,14.97
2018-02-12T13:16:52.994Z,13.20
2018-02-12T13:19:21.313Z,7.32
2018-02-12T13:21:49.658Z,11.97
2018-02-12T13:24:18.020Z,18.03
2018-02-12T13:26:46.341Z,11.20
2018-02-12T13:29:14.726Z,10.93
2018-02-12T13:31:43.046Z,29.77
2018-02-12T13:34:11.384Z,23.93
2018-02-12T13:36:39.709Z,10.50
2018-02-12T13:39:08.059Z,12.93
2018-02-12T13:41:36.401Z,27.17
2018-02-12T13:44:04.783Z,14.23
2018-02-12T13:46:33.097Z,10.53
2018-02-12T13:49:01.486Z,9.70
2018-02-12T13:51:29.801Z,18.08
2018-02-12T13:53:58.225Z,2.67
2018-02-12T13:56:27.484Z,19.73
2018-02-12T13:58:55.862Z,16.37
2018-02-12T14:01:24.241Z,30.07
2018-02-12T14:03:52.586Z,7.67
2018-02-12T14:06:20.909Z,11.40
2018-02-12T14:08:49.253Z,17.27
2018-02-12T14:11:17.577Z,19.40
2018-02-12T14:13:46.817Z,13.63
2018-02-12T14:16:15.156Z,18.97
2018-02-12T14:18:43.499Z,20.63
2018-02-12T14:21:11.821Z,10.47
2018-02-12T14:23:40.253Z,8.90
2018-02-12T14:26:09.501Z,8.82
2018-02-12T14:28:37.921Z,18.67
2018-02-12T14:31:06.301Z,9.43
2018-02-12T14:33:34.678Z,27.83
2018-02-12T14:36:03.977Z,16.73
2018-02-12T14:38:32.309Z,6.45
2018-02-12T14:41:00.729Z,9.43
2018-02-12T14:43:29.153Z,13.68
2018-02-12T14:45:58.513Z,27.10
2018-02-12T14:48:26.852Z,18.37
2018-02-12T14:50:55.173Z,10.73
2018-02-12T14:53:23.521Z,15.83
2018-02-12T14:55:51.913Z,17.13
2018-02-12T14:58:20.255Z,8.20
2018-02-12T15:00:49.085Z,8.77
2018-02-12T15:03:17.458Z,3.30
2018-02-12T15:05:45.832Z,14.10
2018-02-12T15:08:14.170Z,6.03
2018-02-12T15:10:42.584Z,4.12
2018-02-12T15:13:10.930Z,5.50
2018-02-12T15:15:39.259Z,11.60
2018-02-12T15:18:07.588Z,7.20
2018-02-12T15:20:36.846Z,10.18
2018-02-12T15:23:05.293Z,6.93
2018-02-12T15:25:33.613Z,14.70
2018-02-12T15:28:01.957Z,10.07
2018-02-12T15:30:30.280Z,13.70
2018-02-12T15:32:58.698Z,9.77
2018-02-12T15:35:27.235Z,11.60
2018-02-12T15:37:55.630Z,5.70
2018-02-12T15:40:24.554Z,7.45
2018-02-12T15:42:52.869Z,12.13
2018-02-12T15:45:21.241Z,15.23
2018-02-12T15:47:49.566Z,18.73
2018-02-12T15:50:17.907Z,4.55
2018-02-12T15:52:46.241Z,1.92
2018-02-12T15:55:14.565Z,4.50
2018-02-12T15:57:42.886Z,2.20
2018-02-12T16:00:11.226Z,10.23
2018-02-12T16:02:39.550Z,3.53
2018-02-12T16:05:07.933Z,0.80
2018-02-12T16:07:36.249Z,1.30
2018-02-12T16:10:04.589Z,1.37
2018-02-12T16:12:32.910Z,3.20
2018-02-12T16:15:01.246Z,6.60
2018-02-12T16:17:30.029Z,10.48
2018-02-12T16:19:58.395Z,2.77
2018-02-12T16:22:26.757Z,5.10
2018-02-12T16:24:55.093Z,3.55
2018-02-12T16:27:23.414Z,4.70
2018-02-12T16:29:51.789Z,4.40
2018-02-12T16:32:20.166Z,2.87
2018-02-12T16:34:48.541Z,3.23
2018-02-12T16:37:16.918Z,3.10
2018-02-12T16:39:45.256Z,7.73
2018-02-12T16:42:13.673Z,1.67
2018-02-12T16:44:42.049Z,3.37
2018-02-12T16:47:10.432Z,5.07
2018-02-12T16:49:38.805Z,5.80
2018-02-12T16:52:07.117Z,5.35
2018-02-12T16:54:35.563Z,2.30
2018-02-12T16:57:04.386Z,4.37
2018-02-12T16:59:32.730Z,2.57
2018-02-12T17:02:01.120Z,8.43
2018-02-12T17:04:32.009Z,4.18
2018-02-12T17:07:01.120Z,1.83
2018-02-12T17:09:31.018Z,2.95
2018-02-12T17:11:59.334Z,2.93
2018-02-12T17:14:27.668Z,5.33
2018-02-12T17:16:55.985Z,2.85
2018-02-12T17:19:24.321Z,4.90
2018-02-12T17:21:52.643Z,4.60
2018-02-12T17:24:20.997Z,7.25
2018-02-12T17:26:49.293Z,3.53
2018-02-12T17:29:17.629Z,2.67
2018-02-12T17:31:45.945Z,10.73
2018-02-12T17:34:14.286Z,4.10
2018-02-12T17:36:42.603Z,5.12
2018-02-12T17:39:11.501Z,9.82
2018-02-12T17:41:39.829Z,8.73
2018-02-12T17:44:08.149Z,6.60
2018-02-12T17:46:36.483Z,7.12
2018-02-12T17:49:04.880Z,3.47
2018-02-12T17:51:33.254Z,2.83
2018-02-12T17:54:01.570Z,5.18
2018-02-12T17:56:29.925Z,3.70
2018-02-12T17:58:59.145Z,6.70
2018-02-12T18:01:27.482Z,9.40
2018-02-12T18:03:55.806Z,15.93
2018-02-12T18:06:24.146Z,9.52
2018-02-12T18:08:52.458Z,11.63
2018-02-12T18:11:20.801Z,13.48
2018-02-12T18:13:49.122Z,9.45
2018-02-12T18:16:18.437Z,10.37
2018-02-12T18:18:46.750Z,8.10
2018-02-12T18:21:15.157Z,13.30
2018-02-12T18:23:43.498Z,17.43
2018-02-12T18:26:11.860Z,13.62
2018-02-12T18:28:40.250Z,12.17
2018-02-12T18:31:08.588Z,7.80
2018-02-12T18:33:37.001Z,14.93
2018-02-12T18:36:05.350Z,11.30
2018-02-12T18:38:34.450Z,11.20
2018-02-12T18:41:02.851Z,15.97
2018-02-12T18:43:31.225Z,8.93
2018-02-12T18:45:59.569Z,10.57
2018-02-12T18:48:27.894Z,12.23
2018-02-12T18:50:56.250Z,16.27
2018-02-12T18:53:24.721Z,15.80
2018-02-12T18:55:53.118Z,14.47
2018-02-12T18:58:21.451Z,13.47
2018-02-12T19:00:49.797Z,13.80
2018-02-12T19:03:18.117Z,11.63
2018-02-12T19:05:47.238Z,11.57
2018-02-12T19:08:15.612Z,13.30
2018-02-12T19:10:43.995Z,13.40
2018-02-12T19:13:12.321Z,11.27
2018-02-12T19:15:40.691Z,16.97
2018-02-12T19:18:09.009Z,8.23
2018-02-12T19:20:37.401Z,11.87
2018-02-12T19:23:05.773Z,11.00
2018-02-12T19:25:34.134Z,9.50
2018-02-12T19:28:02.533Z,14.50
2018-02-12T19:30:30.886Z,12.35
2018-02-12T19:32:59.290Z,19.10
2018-02-12T19:35:27.629Z,8.70
2018-02-12T19:37:55.949Z,12.10
2018-02-12T19:40:24.447Z,13.00
2018-02-12T19:42:54.065Z,9.20
2018-02-12T19:45:22.458Z,10.77
2018-02-12T19:47:50.886Z,9.57
2018-02-12T19:50:19.201Z,17.50
2018-02-12T19:52:47.552Z,9.30
2018-02-12T19:55:15.861Z,13.90
2018-02-12T19:57:44.498Z,14.68
2018-02-12T20:00:12.821Z,14.25
2018-02-12T20:02:41.246Z,14.37
2018-02-12T20:05:09.568Z,9.60
2018-02-12T20:07:38.000Z,13.67
2018-02-12T20:10:06.326Z,13.25
2018-02-12T20:12:34.670Z,15.90
2018-02-12T20:15:03.029Z,14.40
2018-02-12T20:17:31.406Z,31.27
2018-02-12T20:19:59.785Z,18.92
2018-02-12T20:22:28.135Z,14.83
2018-02-12T20:24:56.461Z,25.57
2018-02-12T20:27:24.826Z,18.63
2018-02-12T20:29:53.246Z,16.60
2018-02-12T20:32:21.565Z,14.70
2018-02-12T20:34:49.888Z,15.93
2018-02-12T20:37:22.089Z,19.67
2018-02-12T20:39:50.524Z,19.40
2018-02-12T20:42:18.874Z,13.13
2018-02-12T20:44:47.193Z,13.63
2018-02-12T20:47:15.630Z,19.47
2018-02-12T20:49:43.997Z,10.83
2018-02-12T20:52:12.342Z,15.50
2018-02-12T20:54:40.753Z,10.00
2018-02-12T20:57:09.097Z,13.23
2018-02-12T20:59:37.425Z,13.63
2018-02-12T21:02:05.772Z,16.43
2018-02-12T21:04:34.160Z,15.30
2018-02-12T21:07:02.509Z,16.90
2018-02-12T21:09:30.824Z,17.73
2018-02-12T21:11:59.162Z,19.47
2018-02-12T21:14:27.485Z,15.70
2018-02-12T21:16:55.828Z,15.57
2018-02-12T21:19:24.213Z,20.07
2018-02-12T21:21:52.593Z,11.57
2018-02-12T21:24:20.918Z,16.70
2018-02-12T21:26:49.261Z,20.50
2018-02-12T21:29:17.612Z,17.83
2018-02-12T21:31:45.962Z,24.60
2018-02-12T21:34:14.637Z,24.83
2018-02-12T21:36:43.034Z,24.23
2018-02-12T21:39:11.364Z,30.15
2018-02-12T21:41:39.713Z,24.97
2018-02-12T21:44:08.034Z,12.80
2018-02-12T21:46:36.465Z,27.45
2018-02-12T21:49:04.842Z,21.00
2018-02-12T21:51:33.230Z,21.90
2018-02-12T21:54:01.576Z,26.05
2018-02-12T21:56:29.977Z,30.23
2018-02-12T21:58:58.358Z,23.67
2018-02-12T22:01:26.682Z,44.72
2018-02-12T22:03:55.113Z,20.63
2018-02-12T22:06:23.485Z,23.13
2018-02-12T22:08:51.838Z,33.17
2018-02-12T22:11:20.237Z,31.87
2018-02-12T22:13:48.585Z,21.17
2018-02-12T22:16:17.879Z,20.75
2018-02-12T22:18:46.298Z,30.67
2018-02-12T22:21:14.626Z,24.57
2018-02-12T22:23:43.054Z,29.37
2018-02-12T22:26:11.385Z,23.40
2018-02-12T22:28:39.733Z,29.77
2018-02-12T22:31:08.088Z,32.50
2018-02-12T22:33:36.457Z,38.67
2018-02-12T22:36:04.833Z,44.95
2018-02-12T22:38:33.181Z,35.47
2018-02-12T22:41:01.596Z,32.53
2018-02-12T22:43:29.942Z,34.60
2018-02-12T22:45:58.286Z,34.43
2018-02-12T22:48:26.665Z,28.45
2018-02-12T22:50:55.098Z,36.97
2018-02-12T22:53:23.473Z,29.17
2018-02-12T22:55:51.806Z,41.10
2018-02-12T22:58:20.229Z,35.40
2018-02-12T23:00:48.565Z,29.37
2018-02-12T23:03:16.985Z,29.87
2018-02-12T23:05:45.465Z,34.97
2018-02-12T23:08:13.794Z,39.77
2018-02-12T23:10:42.222Z,38.00
2018-02-12T23:13:10.571Z,28.77
2018-02-12T23:15:38.889Z,32.50
2018-02-12T23:18:07.233Z,22.60
2018-02-12T23:20:35.564Z,28.55
2018-02-12T23:23:03.902Z,43.35
2018-02-12T23:25:32.229Z,31.08
2018-02-12T23:28:00.648Z,28.60
2018-02-12T23:30:29.029Z,32.20
2018-02-12T23:32:57.404Z,30.15
2018-02-12T23:35:25.729Z,23.00
2018-02-12T23:37:54.074Z,28.87
2018-02-12T23:40:22.397Z,23.17
2018-02-12T23:42:50.816Z,30.80
2018-02-12T23:45:19.189Z,41.17
2018-02-12T23:47:47.569Z,28.25
2018-02-12T23:50:15.949Z,28.10
2018-02-12T23:52:44.325Z,28.85
2018-02-12T23:55:12.702Z,41.70
2018-02-12T23:57:41.034Z,31.02
